Terminal Aerodrome Forecast
Issued by NWS

Home | Current Version | Previous Version | Text Only | Print | Product List | Glossary On
Versions: 1 2 3 4 5 6 7 8 9 10 11 12 13 14 15 16 17 18 19 20
000
FTUS44 KLZK 281400 AAA
TAFLLQ
TAF AMD
KLLQ 281429Z 2814/2912 11004KT P6SM OVC002
     FM281600 19005KT P6SM SCT010 BKN250
     FM281900 15008KT P6SM VCTS SCT030CB SCT100 BKN250=

USA.gov is the U.S. government's official web portal to all federal, state and local government web resources and services.